Time;durP1;ratioP1;P1;durP2;ratioP2;P2;SDS_P1;SDS_P2;PMS_P1;PMS_P2;Temp;Humidity;BMP_temperature;BMP_pressure;BME280_temperature;BME280_humidity;BME280_pressure;Samples;Min_cycle;Max_cycle;Signal;HPM_P1;HPM_P2
2020/12/12 00:01:38;;;;;;;195.82;104.05;;;;;;;6.48;70.91;93974.63;5090948;28;20210;-67
2020/12/12 00:04:05;;;;;;;201.07;106.55;;;;;;;6.64;70.95;93975.50;5092413;28;20195;-68
2020/12/12 00:06:32;;;;;;;200.73;107.00;;;;;;;6.61;70.99;93971.56;5093095;28;20191;-69
2020/12/12 00:08:58;;;;;;;209.07;111.57;;;;;;;6.54;70.84;93971.03;5092308;28;20195;-69
2020/12/12 00:11:25;;;;;;;212.80;111.18;;;;;;;6.55;71.29;93962.16;5092875;28;20195;-68
2020/12/12 00:13:51;;;;;;;218.25;115.13;;;;;;;6.61;71.23;93965.56;5092650;28;20595;-68
2020/12/12 00:16:18;;;;;;;213.43;115.63;;;;;;;6.69;70.83;93973.69;5092641;28;20217;-69
2020/12/12 00:18:45;;;;;;;208.18;113.05;;;;;;;6.64;71.08;93967.69;5092276;28;20199;-70
2020/12/12 00:21:13;;;;;;;195.75;110.45;;;;;;;6.63;70.74;93964.28;5092417;28;20199;-68
2020/12/12 00:23:41;;;;;;;209.93;108.80;;;;;;;6.73;70.50;93964.31;5091995;28;20195;-68
2020/12/12 00:26:07;;;;;;;206.50;104.25;;;;;;;6.71;70.32;93958.63;5092360;28;20192;-68
2020/12/12 00:28:34;;;;;;;194.18;101.95;;;;;;;6.67;70.62;93954.94;5091825;28;20368;-68
2020/12/12 00:31:01;;;;;;;209.00;103.60;;;;;;;6.65;70.90;93959.63;5092478;28;20251;-69
2020/12/12 00:33:28;;;;;;;199.82;104.18;;;;;;;6.65;70.80;93949.22;5091770;28;20722;-70
2020/12/12 00:35:54;;;;;;;188.38;99.95;;;;;;;6.81;70.61;93958.66;5092400;28;20187;-69
2020/12/12 00:38:21;;;;;;;184.73;96.45;;;;;;;6.79;70.26;93945.09;5091437;28;20536;-67
2020/12/12 00:40:57;;;;;;;172.30;91.55;;;;;;;6.76;70.62;93943.00;5092117;28;20696;-68
2020/12/12 00:43:25;;;;;;;170.20;89.78;;;;;;;6.74;70.41;93944.28;5091743;28;20650;-68
2020/12/12 00:45:52;;;;;;;178.00;93.30;;;;;;;6.51;71.51;93936.91;5091871;28;20187;-68
2020/12/12 00:48:19;;;;;;;163.00;87.93;;;;;;;6.56;71.17;93932.50;5091764;28;20274;-69
2020/12/12 00:50:46;;;;;;;172.38;88.95;;;;;;;6.55;71.48;93919.75;5090737;28;20571;-66
2020/12/12 00:53:14;;;;;;;167.07;89.38;;;;;;;6.57;71.25;93917.69;5090718;28;20223;-66
2020/12/12 00:55:41;;;;;;;164.65;87.07;;;;;;;6.50;71.20;93904.91;5091426;28;20195;-67
2020/12/12 00:58:08;;;;;;;150.65;80.78;;;;;;;6.72;71.14;93946.38;5091499;28;20665;-68
2020/12/12 01:00:34;;;;;;;140.43;77.20;;;;;;;6.74;70.66;93932.06;5091230;28;20191;-69
2020/12/12 01:03:02;;;;;;;134.95;73.93;;;;;;;6.70;71.01;93928.41;5091551;28;20266;-68
2020/12/12 01:05:31;;;;;;;130.63;70.70;;;;;;;6.77;71.38;93930.78;5091053;28;20672;-69
2020/12/12 01:07:59;;;;;;;129.88;73.45;;;;;;;6.73;71.29;93927.13;5091720;28;20617;-70
2020/12/12 01:10:25;;;;;;;130.27;69.75;;;;;;;6.74;71.41;93926.88;5090868;28;20205;-67
2020/12/12 01:12:52;;;;;;;139.45;70.57;;;;;;;6.78;71.12;93922.72;5090555;28;20175;-69
2020/12/12 01:15:20;;;;;;;126.00;68.82;;;;;;;6.81;71.50;93918.81;5091393;28;20249;-69
2020/12/12 01:17:46;;;;;;;116.95;65.78;;;;;;;6.96;70.87;93921.47;5091368;28;20191;-69
2020/12/12 01:20:13;;;;;;;113.07;61.00;;;;;;;6.96;71.13;93914.44;5091179;28;20580;-69
2020/12/12 01:22:40;;;;;;;104.03;54.22;;;;;;;6.97;70.85;93905.56;5091544;28;20219;-69
2020/12/12 01:25:06;;;;;;;82.88;46.13;;;;;;;7.10;70.98;93907.69;5090964;28;20575;-67
2020/12/12 01:27:33;;;;;;;79.22;43.72;;;;;;;7.11;70.93;93909.28;5091231;28;20245;-67
2020/12/12 01:29:59;;;;;;;83.35;47.85;;;;;;;6.95;71.40;93899.84;5090491;28;20223;-68
2020/12/12 01:32:26;;;;;;;81.35;46.22;;;;;;;7.01;70.95;93904.03;5090729;28;20180;-69
2020/12/12 01:34:53;;;;;;;77.15;44.40;;;;;;;6.96;71.90;93906.63;5090772;28;20226;-68
2020/12/12 01:37:23;;;;;;;60.25;34.90;;;;;;;6.89;72.63;93900.88;5091246;28;20186;-68
2020/12/12 01:39:49;;;;;;;62.72;38.00;;;;;;;6.99;72.21;93900.09;5090380;28;20199;-69
2020/12/12 01:42:16;;;;;;;61.35;35.97;;;;;;;7.03;72.34;93886.31;5091052;28;20589;-68
2020/12/12 01:44:42;;;;;;;34.13;21.75;;;;;;;7.03;72.72;93894.16;5090586;28;20286;-70
2020/12/12 01:47:09;;;;;;;34.85;21.48;;;;;;;7.02;72.82;93884.00;5090873;28;20195;-69
2020/12/12 01:49:36;;;;;;;32.80;20.35;;;;;;;7.05;73.00;93884.25;5090311;28;20215;-68
2020/12/12 01:52:05;;;;;;;34.65;20.67;;;;;;;7.14;72.91;93882.69;5090982;28;20199;-69
2020/12/12 01:54:33;;;;;;;32.15;19.90;;;;;;;7.09;73.09;93880.09;5090664;28;20200;-67
2020/12/12 01:57:03;;;;;;;29.52;18.75;;;;;;;7.14;73.26;93880.09;5091312;28;20199;-69
2020/12/12 01:59:30;;;;;;;34.33;20.17;;;;;;;7.18;73.05;93878.53;5089941;28;20606;-69
2020/12/12 02:01:58;;;;;;;36.90;22.05;;;;;;;7.10;73.13;93873.84;5090254;28;20302;-69
2020/12/12 02:04:27;;;;;;;46.05;25.02;;;;;;;7.17;72.93;93871.75;5090252;28;20224;-68
2020/12/12 02:06:54;;;;;;;51.75;26.65;;;;;;;7.19;72.93;93874.09;5090857;28;20306;-68
2020/12/12 02:09:21;;;;;;;51.83;27.67;;;;;;;7.03;73.38;93865.50;5090542;28;20199;-69
2020/12/12 02:11:48;;;;;;;49.60;26.50;;;;;;;6.99;73.13;93874.84;5090510;28;20202;-69
2020/12/12 02:14:15;;;;;;;44.45;24.52;;;;;;;7.04;73.14;93871.50;5089839;28;20257;-69
2020/12/12 02:16:57;;;;;;;37.75;22.42;;;;;;;6.98;73.05;93862.88;5090366;28;20195;-69
2020/12/12 02:19:24;;;;;;;35.67;20.05;;;;;;;6.87;73.38;93866.50;5090357;28;20206;-69
2020/12/12 02:21:55;;;;;;;28.73;17.95;;;;;;;7.09;73.13;93854.06;5089828;28;20224;-68
2020/12/12 02:24:29;;;;;;;28.88;16.95;;;;;;;7.15;72.96;93847.03;5089635;28;20211;-66
2020/12/12 02:26:57;;;;;;;28.48;17.40;;;;;;;7.03;72.86;93846.47;5089382;28;20189;-68
2020/12/12 02:29:39;;;;;;;29.77;18.70;;;;;;;7.01;72.96;93851.16;5091621;28;20198;-69
2020/12/12 02:32:06;;;;;;;28.80;19.10;;;;;;;7.00;73.50;93842.59;5092160;28;20199;-68
2020/12/12 02:34:34;;;;;;;31.42;18.60;;;;;;;7.08;73.60;93847.25;5091812;28;20234;-68
2020/12/12 02:37:00;;;;;;;29.05;18.58;;;;;;;6.98;74.07;93836.84;5091896;28;20203;-69
2020/12/12 02:39:27;;;;;;;28.63;17.42;;;;;;;6.99;73.88;93838.41;5091840;28;20202;-70
2020/12/12 02:41:53;;;;;;;32.03;18.38;;;;;;;7.10;73.75;93839.97;5091787;28;20610;-69
2020/12/12 02:44:19;;;;;;;24.10;16.95;;;;;;;7.05;73.99;93837.38;5091312;28;20231;-68
2020/12/12 02:46:46;;;;;;;22.50;14.45;;;;;;;6.96;74.36;93836.31;5091964;28;20195;-68
2020/12/12 02:49:13;;;;;;;18.13;12.95;;;;;;;6.90;74.50;93813.13;5092113;28;20572;-68
2020/12/12 02:51:40;;;;;;;17.10;12.18;;;;;;;6.88;75.50;93839.41;5092298;28;20344;-68
2020/12/12 02:54:07;;;;;;;19.42;13.48;;;;;;;6.94;74.98;93840.22;5092138;28;20202;-68
2020/12/12 02:56:34;;;;;;;17.33;13.30;;;;;;;6.88;75.25;93842.03;5090358;28;20205;-69
2020/12/12 02:59:00;;;;;;;17.63;12.20;;;;;;;6.98;75.09;93836.06;5089968;28;20278;-70
2020/12/12 03:01:27;;;;;;;18.15;12.73;;;;;;;6.97;74.93;93829.28;5089583;28;20201;-68
2020/12/12 03:03:54;;;;;;;16.73;11.80;;;;;;;7.00;75.29;93829.56;5089179;28;20583;-69
2020/12/12 03:06:20;;;;;;;16.25;11.85;;;;;;;7.01;75.39;93830.31;5089390;28;20203;-69
2020/12/12 03:08:46;;;;;;;18.07;11.63;;;;;;;6.94;75.45;93827.97;5089459;28;20195;-69
2020/12/12 03:11:13;;;;;;;14.70;11.57;;;;;;;6.87;75.68;93819.63;5089595;28;20533;-68
2020/12/12 03:13:39;;;;;;;12.98;10.38;;;;;;;6.84;75.88;93822.75;5089051;28;20968;-70
2020/12/12 03:16:06;;;;;;;13.73;10.02;;;;;;;6.90;75.83;93820.94;5090100;28;20195;-70
2020/12/12 03:18:32;;;;;;;15.07;10.45;;;;;;;6.93;76.12;93823.78;5088905;28;20625;-70
2020/12/12 03:20:59;;;;;;;13.23;10.40;;;;;;;6.91;75.63;93810.28;5089513;28;20202;-69
2020/12/12 03:23:25;;;;;;;13.82;10.18;;;;;;;7.05;75.70;93821.75;5088631;28;20303;-69
2020/12/12 03:25:52;;;;;;;11.73;9.30;;;;;;;6.97;75.59;93814.44;5089428;28;20195;-69
2020/12/12 03:28:18;;;;;;;16.50;9.82;;;;;;;7.09;75.69;93817.59;5089398;28;20191;-69
2020/12/12 03:30:45;;;;;;;13.48;9.57;;;;;;;7.01;75.01;93810.28;5089239;28;20221;-67
2020/12/12 03:33:11;;;;;;;15.07;9.10;;;;;;;6.95;75.45;93806.09;5089176;28;20234;-70
2020/12/12 03:35:38;;;;;;;13.10;8.90;;;;;;;6.98;75.58;93810.81;5089097;28;20236;-70
2020/12/12 03:38:05;;;;;;;12.57;8.38;;;;;;;6.84;75.60;93809.72;5093510;28;20273;-68
2020/12/12 03:40:33;;;;;;;12.70;8.00;;;;;;;6.85;75.54;93806.09;5092911;28;20194;-69
2020/12/12 03:43:00;;;;;;;10.40;7.25;;;;;;;6.90;75.17;93800.09;5093209;28;20616;-68
2020/12/12 03:45:26;;;;;;;11.07;7.10;;;;;;;6.86;75.18;93807.66;5092959;28;20689;-69
2020/12/12 03:47:53;;;;;;;9.73;6.15;;;;;;;6.99;74.77;93799.34;5093032;28;20207;-69
2020/12/12 03:50:27;;;;;;;7.47;5.03;;;;;;;7.01;74.41;93792.03;5093051;28;20596;-71
2020/12/12 03:52:57;;;;;;;5.32;4.32;;;;;;;6.88;74.11;93789.16;5093142;28;20190;-69
2020/12/12 03:55:24;;;;;;;5.93;4.22;;;;;;;6.97;73.94;93804.00;5092659;28;20199;-70
2020/12/12 03:57:50;;;;;;;4.53;3.40;;;;;;;6.92;73.96;93796.22;5092887;28;20210;-66
2020/12/12 04:00:17;;;;;;;5.40;3.45;;;;;;;6.91;74.31;93789.44;5092667;28;20299;-69
2020/12/12 04:02:44;;;;;;;6.03;4.72;;;;;;;6.91;74.84;93792.06;5093450;28;20654;-69
2020/12/12 04:05:11;;;;;;;12.05;6.57;;;;;;;6.76;74.62;93786.81;5092511;28;20194;-71
2020/12/12 04:07:37;;;;;;;10.70;6.60;;;;;;;6.88;74.87;93782.13;5092871;28;20198;-70
2020/12/12 04:10:05;;;;;;;12.48;7.28;;;;;;;6.79;74.80;93775.09;5092319;28;20622;-67
2020/12/12 04:12:31;;;;;;;12.40;6.82;;;;;;;6.73;73.77;93779.50;5092920;28;20192;-68
2020/12/12 04:14:57;;;;;;;10.23;5.43;;;;;;;6.71;74.53;93781.63;5092515;28;20649;-69
2020/12/12 04:17:24;;;;;;;10.45;5.43;;;;;;;6.77;73.97;93775.34;5092587;28;20198;-69
2020/12/12 04:19:50;;;;;;;9.98;5.50;;;;;;;6.84;73.11;93781.09;5092006;28;20203;-70
2020/12/12 04:22:17;;;;;;;10.27;4.40;;;;;;;6.70;73.80;93766.22;5092505;28;20238;-68
2020/12/12 04:24:43;;;;;;;8.30;4.47;;;;;;;6.88;73.80;93776.13;5092318;28;20191;-70
2020/12/12 04:27:10;;;;;;;6.72;3.72;;;;;;;6.86;73.99;93786.06;5092646;28;20214;-68
2020/12/12 04:29:36;;;;;;;8.98;4.90;;;;;;;6.89;73.59;93775.91;5091890;28;20649;-67
2020/12/12 04:32:04;;;;;;;6.50;3.70;;;;;;;7.04;73.42;93777.72;5092290;28;20195;-70
2020/12/12 04:34:31;;;;;;;7.15;4.25;;;;;;;6.79;73.59;93770.66;5091881;28;20230;-70
2020/12/12 04:36:57;;;;;;;6.70;4.05;;;;;;;6.82;74.28;93770.19;5092689;28;20199;-69
2020/12/12 04:39:24;;;;;;;4.03;2.88;;;;;;;6.89;74.01;93770.69;5090449;28;20673;-69
2020/12/12 04:41:51;;;;;;;4.85;3.05;;;;;;;6.83;73.32;93761.31;5092358;28;20206;-70
2020/12/12 04:44:18;;;;;;;4.47;2.45;;;;;;;6.92;73.35;93772.78;5092209;28;20199;-69
2020/12/12 04:46:46;;;;;;;6.35;2.90;;;;;;;6.82;73.21;93738.94;5092312;28;20575;-70
2020/12/12 04:49:13;;;;;;;4.00;2.58;;;;;;;6.78;73.22;93753.50;5090158;28;20195;-69
2020/12/12 04:51:40;;;;;;;4.63;2.13;;;;;;;6.90;73.04;93758.44;5092137;28;20680;-68
2020/12/12 04:54:09;;;;;;;4.93;2.63;;;;;;;7.02;72.76;93749.34;5090213;28;20646;-68
2020/12/12 04:56:36;;;;;;;4.20;2.45;;;;;;;6.94;73.28;93752.47;5092196;28;20191;-69
2020/12/12 04:59:04;;;;;;;4.22;2.00;;;;;;;6.71;73.88;93745.16;5091547;28;20198;-69
2020/12/12 05:01:32;;;;;;;5.43;3.10;;;;;;;6.88;72.93;93742.28;5091710;28;20706;-69
2020/12/12 05:04:02;;;;;;;5.38;3.45;;;;;;;7.02;72.68;93744.16;5091549;28;20329;-69
2020/12/12 05:06:33;;;;;;;4.80;3.67;;;;;;;6.74;73.05;93715.22;5091789;28;20241;-69
2020/12/12 05:08:59;;;;;;;5.57;3.10;;;;;;;7.05;72.86;93743.63;5091194;28;20200;-70
2020/12/12 05:11:26;;;;;;;4.95;3.03;;;;;;;7.08;72.36;93743.06;5091617;28;20183;-68
2020/12/12 05:13:53;;;;;;;3.28;2.50;;;;;;;6.86;72.37;93729.53;5091069;28;20203;-70
2020/12/12 05:16:19;;;;;;;4.32;2.60;;;;;;;6.85;72.48;93733.19;5091781;28;20217;-68
2020/12/12 05:18:48;;;;;;;2.67;2.10;;;;;;;6.88;72.81;93739.69;5090992;28;20199;-68
2020/12/12 05:21:15;;;;;;;3.28;2.30;;;;;;;6.95;72.00;93727.22;5091621;28;20200;-69
2020/12/12 05:23:41;;;;;;;5.25;2.30;;;;;;;6.70;72.60;93725.38;5090596;28;20211;-68
2020/12/12 05:26:09;;;;;;;2.83;2.08;;;;;;;6.60;72.61;93704.56;5091505;28;20206;-69
2020/12/12 05:28:36;;;;;;;2.53;1.83;;;;;;;6.81;72.68;93726.94;5090528;28;20203;-68
2020/12/12 05:31:02;;;;;;;2.08;1.67;;;;;;;6.91;72.56;93732.16;5090103;28;20194;-66
2020/12/12 05:33:28;;;;;;;3.92;2.47;;;;;;;6.80;72.60;93717.59;5090664;28;20746;-67
2020/12/12 05:35:56;;;;;;;3.42;2.30;;;;;;;6.82;73.38;93723.31;5086803;28;20223;-69
2020/12/12 05:38:22;;;;;;;4.43;2.60;;;;;;;6.93;73.23;93735.25;5090925;28;20206;-68
2020/12/12 05:40:52;;;;;;;3.88;2.88;;;;;;;6.91;73.21;93739.19;5089481;28;20195;-68
2020/12/12 05:43:19;;;;;;;5.85;3.25;;;;;;;7.03;73.04;93730.06;5090389;28;20227;-70
2020/12/12 05:45:45;;;;;;;3.42;2.78;;;;;;;6.99;73.00;93718.59;5090405;28;20191;-69
2020/12/12 05:48:12;;;;;;;4.43;3.20;;;;;;;6.96;73.51;93728.75;5090481;28;20213;-70
2020/12/12 05:50:39;;;;;;;6.28;3.25;;;;;;;6.80;73.96;93720.19;5089537;28;20203;-69
2020/12/12 05:53:06;;;;;;;5.50;3.55;;;;;;;6.85;73.81;93717.56;5091053;28;20202;-69
2020/12/12 05:55:35;;;;;;;5.80;3.83;;;;;;;6.80;73.86;93714.97;5089650;28;20184;-68
2020/12/12 05:58:02;;;;;;;5.25;3.47;;;;;;;6.91;73.76;93732.16;5088184;28;20588;-68
2020/12/12 06:00:31;;;;;;;4.45;3.15;;;;;;;6.69;73.66;93697.00;5088192;28;20225;-69
2020/12/12 06:03:06;;;;;;;3.90;2.90;;;;;;;6.80;73.56;93722.00;5090644;28;20974;-69
2020/12/12 06:05:34;;;;;;;4.63;3.25;;;;;;;6.87;72.77;93720.69;5090135;28;20187;-67
2020/12/12 06:08:05;;;;;;;4.47;2.80;;;;;;;6.75;72.73;93699.34;5090553;28;20179;-69
2020/12/12 06:10:33;;;;;;;4.22;2.65;;;;;;;6.93;72.88;93718.88;5089953;28;20195;-69
2020/12/12 06:13:02;;;;;;;3.70;2.40;;;;;;;6.95;72.51;93712.34;5090907;28;20187;-70
2020/12/12 06:15:37;;;;;;;2.80;1.60;;;;;;;6.82;71.91;93717.31;5089909;28;20206;-70
2020/12/12 06:18:46;;;;;;;2.90;1.85;;;;;;;6.71;71.60;93711.34;5090576;28;20733;-67
2020/12/12 06:21:14;;;;;;;4.35;2.10;;;;;;;6.68;71.98;93716.28;5087180;28;20206;-69
2020/12/12 06:23:41;;;;;;;2.75;2.03;;;;;;;6.79;71.81;93718.59;5089808;28;20214;-66
2020/12/12 06:26:10;;;;;;;4.53;2.20;;;;;;;6.87;72.21;93710.28;5090081;28;20361;-67
2020/12/12 06:28:41;;;;;;;2.25;1.85;;;;;;;6.82;72.71;93718.09;5089947;28;20301;-67
2020/12/12 06:31:12;;;;;;;2.72;1.88;;;;;;;6.78;73.06;93696.22;5089988;28;20262;-67
2020/12/12 06:33:53;;;;;;;3.22;2.25;;;;;;;6.92;72.90;93707.69;5089614;28;20583;-69
2020/12/12 06:36:33;;;;;;;2.67;1.92;;;;;;;6.95;73.28;93709.75;5090320;28;20187;-68
2020/12/12 06:39:24;;;;;;;2.55;2.10;;;;;;;6.99;73.05;93708.19;5089799;28;20203;-68
2020/12/12 06:41:54;;;;;;;3.25;2.80;;;;;;;7.05;72.70;93709.75;5089887;28;20298;-67
2020/12/12 06:44:34;;;;;;;3.08;2.25;;;;;;;6.98;72.93;93709.25;5089656;28;20205;-69
2020/12/12 06:47:01;;;;;;;2.80;2.40;;;;;;;6.95;73.06;93712.34;5089998;28;20256;-69
2020/12/12 06:49:28;;;;;;;4.65;2.67;;;;;;;6.89;73.34;93705.59;5089888;28;20191;-70
2020/12/12 06:51:55;;;;;;;3.40;2.55;;;;;;;6.90;73.71;93711.56;5089837;28;20210;-69
2020/12/12 06:54:22;;;;;;;4.90;3.83;;;;;;;6.83;73.85;93709.25;5089637;28;20634;-69
2020/12/12 06:56:49;;;;;;;5.47;3.47;;;;;;;6.84;74.06;93700.38;5089576;28;20214;-67
2020/12/12 06:59:34;;;;;;;4.35;3.40;;;;;;;6.86;73.79;93702.75;5089167;28;20670;-68
2020/12/12 07:02:06;;;;;;;5.00;3.42;;;;;;;6.74;73.93;93689.97;5089942;28;20631;-66
2020/12/12 07:04:35;;;;;;;4.43;3.05;;;;;;;6.91;73.84;93706.13;5089359;28;20206;-68
2020/12/12 07:07:07;;;;;;;7.07;3.95;;;;;;;6.97;73.86;93710.28;5090911;28;20180;-66
2020/12/12 07:09:42;;;;;;;7.38;5.25;;;;;;;7.00;73.57;93688.94;5089255;28;20202;-68
2020/12/12 07:12:10;;;;;;;10.27;5.50;;;;;;;7.08;73.00;93695.41;5088943;28;20275;-68
2020/12/12 07:14:37;;;;;;;5.07;3.70;;;;;;;7.01;71.10;93700.09;5089253;28;20199;-68
2020/12/12 07:17:06;;;;;;;31.95;14.25;;;;;;;7.08;70.68;93691.00;5089743;28;20202;-67
2020/12/12 07:19:38;;;;;;;143.07;49.95;;;;;;;7.12;70.07;93692.03;5089328;28;20938;-67
2020/12/12 07:22:09;;;;;;;69.30;24.48;;;;;;;7.11;70.70;93689.69;5089719;28;20206;-69
2020/12/12 07:24:35;;;;;;;50.20;19.42;;;;;;;7.12;70.45;93686.03;5089050;28;20198;-69
2020/12/12 07:27:03;;;;;;;40.83;16.67;;;;;;;7.15;71.24;93686.28;5089518;28;20195;-65
2020/12/12 07:29:30;;;;;;;35.60;15.63;;;;;;;7.12;72.39;93686.81;5088782;28;20709;-65
2020/12/12 07:31:58;;;;;;;16.42;8.05;;;;;;;7.22;72.18;93685.25;5089182;28;20456;-66
2020/12/12 07:34:26;;;;;;;15.82;7.80;;;;;;;7.27;72.61;93682.63;5088751;28;20288;-65
2020/12/12 07:37:06;;;;;;;14.30;7.25;;;;;;;7.32;72.93;93680.03;5089524;28;20256;-69
2020/12/12 07:39:36;;;;;;;12.00;7.13;;;;;;;7.36;72.81;93681.03;5084145;28;20203;-67
2020/12/12 07:42:04;;;;;;;15.32;10.35;;;;;;;7.26;72.67;93678.47;5088803;28;20187;-67
2020/12/12 07:44:36;;;;;;;15.32;9.88;;;;;;;7.27;72.84;93672.19;5087202;28;20199;-69
2020/12/12 07:47:07;;;;;;;16.65;10.63;;;;;;;7.26;72.75;93675.88;5089092;28;20224;-71
2020/12/12 07:49:35;;;;;;;34.88;23.00;;;;;;;7.26;73.13;93675.88;5088482;28;20195;-68
2020/12/12 07:52:10;;;;;;;33.47;24.05;;;;;;;7.36;73.45;93670.63;5088712;28;20274;-68
2020/12/12 07:54:43;;;;;;;31.90;20.17;;;;;;;7.33;73.63;93681.56;5087891;28;20233;-67
2020/12/12 07:57:11;;;;;;;35.70;21.15;;;;;;;7.37;73.11;93672.19;5089272;28;20199;-68
2020/12/12 07:59:39;;;;;;;29.58;18.48;;;;;;;7.34;73.70;93672.69;5088522;28;20242;-69
2020/12/12 08:02:06;;;;;;;22.60;14.82;;;;;;;7.07;75.35;93679.03;5088374;28;20561;-66
2020/12/12 08:04:34;;;;;;;18.38;10.98;;;;;;;7.08;74.84;93685.00;5088891;28;20203;-70
2020/12/12 08:07:20;;;;;;;13.93;9.57;;;;;;;7.10;75.34;93680.31;5093095;28;20704;-67
2020/12/12 08:09:50;;;;;;;7.18;5.22;;;;;;;7.10;75.11;93678.50;5093529;28;20445;-68
2020/12/12 08:12:33;;;;;;;7.53;4.40;;;;;;;7.01;75.33;93674.84;5090224;28;20661;-68
2020/12/12 08:15:07;;;;;;;19.08;12.80;;;;;;;7.22;74.72;93673.75;5088435;28;20193;-68
2020/12/12 08:17:34;;;;;;;20.35;14.52;;;;;;;7.33;76.10;93665.94;5088951;28;20191;-67
2020/12/12 08:20:02;;;;;;;7.03;5.15;;;;;;;7.34;75.68;93672.69;5088231;28;20196;-67
2020/12/12 08:22:29;;;;;;;5.95;4.10;;;;;;;7.26;74.95;93676.66;5090184;28;20199;-68
2020/12/12 08:24:58;;;;;;;6.50;4.30;;;;;;;7.42;74.45;93665.16;5092047;28;20198;-69
2020/12/12 08:27:28;;;;;;;5.55;4.13;;;;;;;7.37;74.87;93667.78;5092367;28;20195;-69
2020/12/12 08:29:56;;;;;;;6.82;4.55;;;;;;;7.52;74.49;93664.34;5091548;28;20199;-70
2020/12/12 08:32:48;;;;;;;6.32;4.15;;;;;;;7.51;74.02;93668.75;5091825;28;20179;-69
2020/12/12 08:35:26;;;;;;;7.75;5.35;;;;;;;7.44;72.95;93672.69;5088990;28;20217;-66
2020/12/12 08:38:01;;;;;;;6.90;4.50;;;;;;;7.29;71.61;93667.50;5091451;28;20190;-68
2020/12/12 08:40:30;;;;;;;8.75;5.82;;;;;;;7.33;71.41;93671.16;5090183;28;20209;-67
2020/12/12 08:43:01;;;;;;;9.93;6.25;;;;;;;7.19;71.95;93670.91;5090966;28;20314;-69
2020/12/12 08:45:29;;;;;;;8.52;5.60;;;;;;;7.16;71.85;93672.25;5089993;28;20270;-69
2020/12/12 08:48:04;;;;;;;8.52;6.45;;;;;;;7.32;72.90;93664.41;5090435;28;20688;-70
2020/12/12 08:50:52;;;;;;;13.43;9.15;;;;;;;6.96;72.12;93635.81;5088456;28;20190;-68
2020/12/12 08:53:29;;;;;;;48.30;30.55;;;;;;;7.12;71.23;93663.38;5089687;28;20665;-67
2020/12/12 08:56:07;;;;;;;10.70;6.70;;;;;;;7.16;71.40;93663.63;5090190;28;20198;-72
2020/12/12 08:58:39;;;;;;;7.38;4.82;;;;;;;7.22;70.90;93669.63;5088747;28;20195;-71
2020/12/12 09:01:11;;;;;;;6.10;3.60;;;;;;;7.07;70.17;93663.41;5087719;28;21047;-67
2020/12/12 09:03:58;;;;;;;6.30;3.83;;;;;;;7.04;69.99;93670.97;5088323;28;20233;-66
2020/12/12 09:06:26;;;;;;;5.10;3.58;;;;;;;6.98;70.03;93664.97;5089199;28;20191;-67
2020/12/12 09:09:05;;;;;;;7.15;4.20;;;;;;;7.20;71.32;93667.28;5089141;28;20230;-70
2020/12/12 09:11:32;;;;;;;6.03;3.70;;;;;;;7.27;70.19;93664.38;5089850;28;20717;-66
2020/12/12 09:14:00;;;;;;;6.95;4.68;;;;;;;7.19;70.78;93666.50;5089450;28;20193;-68
2020/12/12 09:16:27;;;;;;;6.88;3.90;;;;;;;7.03;71.96;93669.38;5089904;28;20179;-67
2020/12/12 09:18:54;;;;;;;6.18;4.97;;;;;;;6.97;70.25;93663.41;5089425;28;20202;-66
2020/12/12 09:21:21;;;;;;;8.23;5.40;;;;;;;7.24;70.23;93657.09;5086769;28;20665;-69
2020/12/12 09:23:47;;;;;;;64.00;45.45;;;;;;;7.26;70.22;93652.41;5089598;28;20229;-68
2020/12/12 09:26:14;;;;;;;12.63;8.90;;;;;;;7.16;69.99;93651.41;5089759;28;20218;-70
2020/12/12 09:28:40;;;;;;;5.85;3.97;;;;;;;7.22;70.30;93645.13;5080386;28;20196;-71
2020/12/12 09:31:07;;;;;;;7.38;3.42;;;;;;;7.26;71.20;93644.59;5088751;28;20780;-69
2020/12/12 09:33:34;;;;;;;5.40;2.92;;;;;;;7.21;72.10;93647.22;5088019;28;20241;-68
2020/12/12 09:36:03;;;;;;;2.72;2.08;;;;;;;7.10;71.69;93649.06;5090358;28;20191;-66
2020/12/12 09:38:30;;;;;;;1.88;1.40;;;;;;;7.05;70.42;93628.22;5089260;28;20764;-66
2020/12/12 09:40:57;;;;;;;1.38;1.10;;;;;;;6.92;71.37;93639.19;5090595;28;20294;-69
2020/12/12 09:43:35;;;;;;;1.75;1.15;;;;;;;6.95;71.46;93639.44;5089666;28;20230;-69
2020/12/12 09:46:02;;;;;;;1.60;1.20;;;;;;;6.99;70.62;93624.84;5089913;28;20853;-67
2020/12/12 09:48:29;;;;;;;1.83;1.23;;;;;;;6.74;70.54;93632.72;5089641;28;20184;-67
2020/12/12 09:50:55;;;;;;;1.63;0.90;;;;;;;6.61;70.83;93643.66;5090240;28;20267;-66
2020/12/12 09:53:22;;;;;;;3.22;1.90;;;;;;;6.89;73.76;93632.69;5089115;28;20199;-65
2020/12/12 09:55:48;;;;;;;2.22;1.00;;;;;;;6.96;71.77;93641.03;5089486;28;20230;-64
2020/12/12 09:58:14;;;;;;;1.95;1.35;;;;;;;7.06;71.16;93630.56;5089690;28;20227;-65
2020/12/12 10:00:42;;;;;;;2.25;1.42;;;;;;;7.02;71.52;93629.56;5089609;28;20202;-63
2020/12/12 10:03:09;;;;;;;4.50;2.40;;;;;;;7.30;72.94;93622.94;5089965;28;20218;-64
2020/12/12 10:05:36;;;;;;;4.22;2.38;;;;;;;7.22;70.44;93633.94;5089418;28;20752;-64
2020/12/12 10:08:04;;;;;;;3.42;2.38;;;;;;;7.37;73.35;93635.72;5089518;28;20199;-66
2020/12/12 10:10:32;;;;;;;78.72;48.38;;;;;;;7.35;69.68;93632.59;5089508;28;20199;-64
2020/12/12 10:12:59;;;;;;;83.80;59.47;;;;;;;7.35;70.84;93630.00;5089614;28;20183;-66
2020/12/12 10:15:27;;;;;;;4.05;2.83;;;;;;;7.10;71.07;93625.63;5089373;28;20192;-64
2020/12/12 10:17:54;;;;;;;3.67;2.50;;;;;;;7.01;71.90;93643.59;5095965;28;20195;-65
2020/12/12 10:20:22;;;;;;;7.80;3.28;;;;;;;7.15;71.43;93639.41;5092243;28;20225;-66
2020/12/12 10:22:49;;;;;;;9.07;3.47;;;;;;;7.39;72.08;93633.63;5088695;28;20230;-64
2020/12/12 10:25:16;;;;;;;5.47;2.50;;;;;;;7.47;70.81;93620.03;5089077;28;20614;-62
2020/12/12 10:27:44;;;;;;;3.33;2.10;;;;;;;7.43;69.50;93619.78;5089241;28;20252;-64
2020/12/12 10:30:12;;;;;;;3.78;2.80;;;;;;;7.45;68.85;93617.69;5088547;28;20195;-64
2020/12/12 10:32:39;;;;;;;4.28;3.10;;;;;;;7.40;71.45;93627.34;5089046;28;20281;-63
2020/12/12 10:35:08;;;;;;;5.32;3.10;;;;;;;7.61;70.54;93616.59;5089054;28;20611;-67
2020/12/12 10:37:34;;;;;;;6.30;4.07;;;;;;;7.42;71.25;93614.84;5088748;28;20227;-65
2020/12/12 10:42:41;;;;;;;50.53;32.53;;;;;;;7.46;72.58;93613.28;5089256;28;20287;-63
2020/12/12 10:45:09;;;;;;;113.88;84.55;;;;;;;7.57;70.92;93604.38;5088817;28;20897;-66
2020/12/12 10:47:36;;;;;;;8.88;5.13;;;;;;;7.53;69.83;93608.53;5089332;28;20199;-63
2020/12/12 10:50:05;;;;;;;5.68;3.88;;;;;;;7.45;70.94;93606.47;5088664;28;20278;-64
2020/12/12 10:52:36;;;;;;;6.47;3.72;;;;;;;7.68;69.60;93601.41;5088783;28;20195;-63
2020/12/12 10:55:04;;;;;;;5.20;3.35;;;;;;;7.49;69.63;93599.69;5088355;28;20194;-65
2020/12/12 10:57:31;;;;;;;6.07;3.58;;;;;;;7.64;69.15;93604.84;5089088;28;20222;-63
2020/12/12 11:00:00;;;;;;;4.47;3.55;;;;;;;7.52;70.72;93602.53;5088150;28;20187;-65
2020/12/12 11:02:32;;;;;;;8.27;4.93;;;;;;;7.66;69.85;93605.38;5088787;28;20183;-64
2020/12/12 11:04:59;;;;;;;7.35;4.93;;;;;;;7.69;69.16;93608.22;5088365;28;20175;-64
2020/12/12 11:07:26;;;;;;;7.85;3.92;;;;;;;7.42;69.93;93609.63;5088767;28;20665;-63
2020/12/12 11:09:52;;;;;;;4.50;3.00;;;;;;;7.53;69.95;93605.94;5088353;28;20203;-62
2020/12/12 11:12:19;;;;;;;44.03;32.45;;;;;;;7.71;70.21;93602.72;5088611;28;20206;-65
2020/12/12 11:14:52;;;;;;;158.27;103.47;;;;;;;7.62;69.71;93601.72;5087970;28;20241;-64
2020/12/12 11:17:19;;;;;;;4.03;2.97;;;;;;;7.55;68.97;93606.47;5088743;28;20188;-64
2020/12/12 11:19:46;;;;;;;3.65;2.05;;;;;;;7.65;68.20;93611.59;5088122;28;20260;-65
2020/12/12 11:22:12;;;;;;;3.03;2.03;;;;;;;7.63;67.88;93603.28;5088068;28;20222;-66
2020/12/12 11:24:39;;;;;;;3.78;2.40;;;;;;;7.70;68.59;93601.19;5087367;28;20215;-63
2020/12/12 11:27:05;;;;;;;5.03;3.25;;;;;;;7.72;67.88;93601.69;5088994;28;20615;-63
2020/12/12 11:29:31;;;;;;;14.52;3.58;;;;;;;7.59;71.08;93595.22;5088188;28;20179;-64
2020/12/12 11:32:00;;;;;;;3.03;2.38;;;;;;;7.73;69.99;93604.03;5088757;28;20195;-64
2020/12/12 11:34:32;;;;;;;3.35;2.28;;;;;;;7.73;69.79;93608.44;5088221;28;20237;-64
2020/12/12 11:42:31;;;;;;;1.70;1.40;;;;;;;7.80;68.60;93599.28;5088601;28;20664;-65
2020/12/12 11:47:43;;;;;;;3.03;2.00;;;;;;;7.71;68.65;93594.91;5088784;28;20203;-62
2020/12/12 11:50:09;;;;;;;5.97;2.97;;;;;;;7.67;69.56;93588.66;5087888;28;20214;-65
2020/12/12 11:52:42;;;;;;;2.67;1.98;;;;;;;7.76;68.85;93589.66;5088736;28;20258;-63